weather.gov     
National Weather Service

Terminal Aerodrome Forecast
NWS Homepage
This page is being discontinued on March 12, 2014.
The same data is available at this site. Please update your bookmarks.
Thank you, and we apologize for the inconvenience.
Please send an email to SR-SRH.Webmaster@noaa.gov with any concerns.


Current Version
Previous Version:    01  02  03  04  05  06  07  08  09  10  11  12  13  14  15  16  17  18  19  20  21  22  23  24  25  26  27  28  29  30  
   31  32  33  34  35  36  37  38  39  40  41  42  43  44  45  46  
[Printable]
783
FTUS43 KMKX 240904 AAA
TAFENW
TAF AMD
KENW 240904Z 2409/2506 09005KT P6SM -RA SCT035 OVC060
     FM241200 11011KT P6SM VCSH OVC050
     FM241500 13015G23KT 5SM BR SCT020 BKN060
     FM242000 23017G27KT 4SM SHRA OVC025 PROB30 2420/2502 3SM -TSRA
      BKN025 OVC050CB
     FM250200 17008KT 6SM -SHRA BR OVC035
     FM250500 20005KT 6SM BR OVC025=


783
FTUS43 KMKX 240904 AAA
TAFENW
TAF AMD
KENW 240904Z 2409/2506 09005KT P6SM -RA SCT035 OVC060
     FM241200 11011KT P6SM VCSH OVC050
     FM241500 13015G23KT 5SM BR SCT020 BKN060
     FM242000 23017G27KT 4SM SHRA OVC025 PROB30 2420/2502 3SM -TSRA
      BKN025 OVC050CB
     FM250200 17008KT 6SM -SHRA BR OVC035
     FM250500 20005KT 6SM BR OVC025=




U.S. Dept. of Commerce
NOAA National Weather Service
1325 East West Highway
Silver Spring, MD 20910
E-mail: w-nws.webmaster@noaa.gov
Page last modified: May 16, 2007
NATIONAL WEATHER SERVICE: for Safety, for Work, for Fun - FOR LIFE